createdAt,value
2022-09-11T00:01:40.405Z,16.67
2022-09-11T00:04:09.289Z,9.65
2022-09-11T00:06:37.691Z,11.23
2022-09-11T00:09:07.909Z,11.55
2022-09-11T00:11:41.408Z,13.57
2022-09-11T00:14:10.837Z,13.35
2022-09-11T00:16:41.449Z,10.05
2022-09-11T00:19:12.236Z,13.80
2022-09-11T00:21:40.713Z,13.93
2022-09-11T00:24:10.340Z,10.98
2022-09-11T00:26:41.117Z,11.15
2022-09-11T00:29:09.808Z,10.88
2022-09-11T00:31:38.338Z,16.27
2022-09-11T00:34:07.083Z,12.93
2022-09-11T00:36:37.619Z,12.95
2022-09-11T00:39:06.814Z,9.35
2022-09-11T00:41:36.703Z,10.50
2022-09-11T00:44:07.871Z,10.85
2022-09-11T00:46:39.901Z,15.45
2022-09-11T00:49:18.006Z,12.85
2022-09-11T00:51:50.564Z,10.45
2022-09-11T00:54:24.375Z,12.98
2022-09-11T00:56:53.622Z,15.13
2022-09-11T00:59:26.993Z,11.82
2022-09-11T01:01:55.610Z,12.80
2022-09-11T01:04:24.283Z,9.00
2022-09-11T01:06:53.912Z,13.60
2022-09-11T01:09:22.512Z,14.48
2022-09-11T01:11:59.287Z,18.45
2022-09-11T01:14:42.881Z,14.23
2022-09-11T01:17:27.921Z,11.10
2022-09-11T01:20:26.426Z,12.18
2022-09-11T01:23:28.505Z,15.00
2022-09-11T01:26:13.222Z,14.85
2022-09-11T01:28:51.041Z,12.77
2022-09-11T01:31:25.846Z,14.75
2022-09-11T01:33:59.603Z,11.40
2022-09-11T01:36:34.228Z,11.32
2022-09-11T01:39:04.838Z,17.17
2022-09-11T01:41:38.017Z,13.77
2022-09-11T01:44:14.258Z,27.00
2022-09-11T01:46:46.429Z,16.58
2022-09-11T01:49:19.086Z,12.07
2022-09-11T01:51:49.678Z,15.55
2022-09-11T01:54:20.578Z,15.13
2022-09-11T01:56:52.794Z,17.48
2022-09-11T01:59:28.127Z,13.55
2022-09-11T02:02:02.066Z,16.98
2022-09-11T02:04:35.206Z,17.35
2022-09-11T02:07:08.652Z,14.88
2022-09-11T02:09:41.495Z,12.85
2022-09-11T02:12:14.197Z,15.70
2022-09-11T02:14:46.381Z,14.80
2022-09-11T02:17:19.681Z,15.38
2022-09-11T02:19:49.274Z,15.23
2022-09-11T02:22:17.629Z,14.05
2022-09-11T02:24:46.000Z,14.45
2022-09-11T02:27:17.403Z,19.02
2022-09-11T02:29:47.774Z,16.42
2022-09-11T02:32:16.053Z,13.77
2022-09-11T02:34:45.368Z,14.52
2022-09-11T02:37:29.726Z,14.30
2022-09-11T02:40:13.685Z,16.70
2022-09-11T02:42:56.616Z,18.38
2022-09-11T02:45:36.898Z,16.10
2022-09-11T02:48:19.559Z,14.32
2022-09-11T02:50:54.138Z,18.80
2022-09-11T02:53:30.249Z,16.17
2022-09-11T02:56:04.129Z,17.58
2022-09-11T02:58:36.547Z,15.07
2022-09-11T03:01:09.738Z,19.85
2022-09-11T03:03:40.323Z,16.05
2022-09-11T03:06:11.033Z,13.68
2022-09-11T03:08:39.772Z,17.55
2022-09-11T03:11:08.872Z,22.52
2022-09-11T03:13:38.024Z,23.35
2022-09-11T03:16:08.689Z,27.23
2022-09-11T03:18:37.026Z,25.08
2022-09-11T03:21:05.892Z,24.70
2022-09-11T03:23:34.551Z,30.02
2022-09-11T03:26:02.966Z,27.17
2022-09-11T03:28:32.104Z,26.90
2022-09-11T03:31:00.890Z,26.40
2022-09-11T03:33:31.113Z,27.88
2022-09-11T03:35:59.638Z,26.35
2022-09-11T03:38:28.619Z,28.08
2022-09-11T03:40:57.877Z,28.10
2022-09-11T03:43:26.123Z,36.08
2022-09-11T03:45:54.558Z,30.35
2022-09-11T03:48:22.807Z,34.55
2022-09-11T03:50:52.494Z,30.83
2022-09-11T03:53:20.687Z,33.20
2022-09-11T03:55:50.138Z,33.03
2022-09-11T03:58:19.459Z,31.67
2022-09-11T04:00:47.891Z,35.13
2022-09-11T04:03:17.607Z,34.83
2022-09-11T04:05:57.750Z,30.70
2022-09-11T04:08:27.936Z,33.17
2022-09-11T04:10:58.404Z,40.58
2022-09-11T04:13:30.543Z,39.55
2022-09-11T04:16:06.149Z,38.55
2022-09-11T04:18:37.020Z,38.20
2022-09-11T04:21:06.413Z,39.13
2022-09-11T04:23:36.143Z,45.05
2022-09-11T04:26:05.119Z,40.58
2022-09-11T04:28:33.796Z,39.72
2022-09-11T04:31:04.820Z,40.70
2022-09-11T04:33:33.214Z,40.90
2022-09-11T04:36:06.141Z,38.10
2022-09-11T04:38:36.629Z,37.30
2022-09-11T04:41:06.861Z,38.58
2022-09-11T04:43:38.136Z,38.78
2022-09-11T04:46:09.034Z,39.53
2022-09-11T04:48:38.692Z,40.13
2022-09-11T04:51:08.355Z,38.13
2022-09-11T04:53:38.550Z,44.90
2022-09-11T04:56:08.992Z,43.17
2022-09-11T04:58:37.600Z,41.15
2022-09-11T05:01:08.353Z,37.97
2022-09-11T05:03:36.911Z,41.72
2022-09-11T05:06:06.605Z,35.63
2022-09-11T05:08:36.895Z,41.75
2022-09-11T05:11:07.071Z,39.58
2022-09-11T05:13:37.662Z,39.95
2022-09-11T05:16:07.060Z,38.00
2022-09-11T05:18:35.566Z,38.25
2022-09-11T05:21:04.995Z,41.38
2022-09-11T05:23:34.212Z,39.17
2022-09-11T05:26:03.516Z,40.65
2022-09-11T05:28:33.837Z,40.10
2022-09-11T05:31:03.138Z,39.40
2022-09-11T05:33:31.656Z,37.03
2022-09-11T05:36:05.541Z,41.50
2022-09-11T05:38:35.814Z,41.22
2022-09-11T05:41:06.186Z,38.65
2022-09-11T05:43:36.540Z,44.42
2022-09-11T05:46:05.531Z,42.00
2022-09-11T05:48:35.364Z,39.53
2022-09-11T05:51:07.622Z,42.13
2022-09-11T05:53:35.940Z,38.50
2022-09-11T05:56:08.589Z,53.45
2022-09-11T05:58:38.277Z,44.55
2022-09-11T06:01:08.393Z,43.40
2022-09-11T06:03:37.947Z,47.85
2022-09-11T06:06:09.118Z,42.67
2022-09-11T06:08:38.321Z,49.63
2022-09-11T06:11:08.247Z,49.28
2022-09-11T06:13:39.909Z,42.78
2022-09-11T06:16:14.577Z,45.53
2022-09-11T06:18:49.176Z,46.88
2022-09-11T06:21:20.113Z,47.22
2022-09-11T06:23:49.070Z,46.65
2022-09-11T06:26:18.931Z,52.13
2022-09-11T06:28:48.973Z,48.75
2022-09-11T06:31:19.275Z,51.47
2022-09-11T06:33:48.367Z,49.30
2022-09-11T06:36:18.183Z,53.33
2022-09-11T06:38:46.834Z,46.38
2022-09-11T06:41:16.199Z,46.92
2022-09-11T06:43:45.965Z,44.15
2022-09-11T06:46:17.471Z,44.65
2022-09-11T06:48:46.820Z,46.50
2022-09-11T06:51:16.299Z,44.22
2022-09-11T06:53:45.099Z,49.70
2022-09-11T06:56:15.055Z,48.47
2022-09-11T06:58:43.894Z,53.10
2022-09-11T07:01:13.503Z,49.45
2022-09-11T07:03:46.070Z,49.10
2022-09-11T07:06:14.717Z,54.40
2022-09-11T07:08:42.981Z,50.78
2022-09-11T07:11:12.776Z,49.75
2022-09-11T07:13:42.052Z,47.42
2022-09-11T07:16:12.545Z,47.72
2022-09-11T07:18:42.330Z,47.97
2022-09-11T07:21:13.231Z,44.13
2022-09-11T07:23:43.514Z,40.78
2022-09-11T07:26:13.030Z,40.03
2022-09-11T07:28:41.738Z,40.72
2022-09-11T07:31:11.801Z,41.90
2022-09-11T07:33:42.943Z,39.13
2022-09-11T07:36:14.341Z,38.42
2022-09-11T07:38:43.733Z,39.50
2022-09-11T07:41:12.452Z,42.70
2022-09-11T07:43:42.136Z,43.22
2022-09-11T07:46:11.730Z,40.80
2022-09-11T07:48:40.878Z,38.08
2022-09-11T07:51:10.970Z,39.75
2022-09-11T07:53:42.713Z,35.75
2022-09-11T07:56:12.574Z,32.72
2022-09-11T07:58:42.226Z,31.95
2022-09-11T08:01:13.013Z,31.85
2022-09-11T08:03:43.139Z,28.63
2022-09-11T08:06:13.837Z,25.45
2022-09-11T08:08:44.787Z,26.75
2022-09-11T08:11:14.956Z,25.38
2022-09-11T08:13:44.048Z,20.35
2022-09-11T08:16:12.562Z,21.08
2022-09-11T08:18:40.795Z,19.50
2022-09-11T08:21:13.103Z,17.73
2022-09-11T08:23:45.171Z,16.73
2022-09-11T08:26:15.383Z,13.02
2022-09-11T08:28:45.000Z,13.20
2022-09-11T08:31:14.033Z,11.13
2022-09-11T08:33:42.448Z,10.98
2022-09-11T08:36:14.635Z,7.88
2022-09-11T08:38:50.369Z,8.45
2022-09-11T08:41:29.645Z,10.00
2022-09-11T08:44:02.761Z,11.23
2022-09-11T08:46:36.523Z,4.70
2022-09-11T08:49:12.492Z,4.15
2022-09-11T08:51:40.988Z,6.28
2022-09-11T08:54:23.328Z,5.97
2022-09-11T08:56:52.973Z,10.30
2022-09-11T08:59:28.137Z,5.15
2022-09-11T09:02:11.250Z,7.30
2022-09-11T09:05:05.457Z,7.68
2022-09-11T09:07:42.110Z,6.75
2022-09-11T09:10:23.614Z,7.10
2022-09-11T09:13:00.225Z,7.95
2022-09-11T09:15:41.248Z,8.85
2022-09-11T09:18:15.094Z,11.15
2022-09-11T09:20:47.848Z,7.10
2022-09-11T09:23:22.467Z,8.07
2022-09-11T09:25:54.013Z,11.65
2022-09-11T09:28:24.802Z,7.20
2022-09-11T09:30:57.582Z,8.35
2022-09-11T09:33:32.626Z,7.47
2022-09-11T09:36:14.524Z,6.75
2022-09-11T09:38:42.909Z,4.45
2022-09-11T09:41:39.261Z,7.72
2022-09-11T09:44:19.497Z,5.80
2022-09-11T09:46:51.262Z,5.90
2022-09-11T09:49:24.285Z,6.30
2022-09-11T09:51:55.668Z,4.50
2022-09-11T09:54:27.047Z,7.70
2022-09-11T09:57:02.772Z,4.93
2022-09-11T09:59:35.346Z,6.60
2022-09-11T10:02:04.269Z,6.22
2022-09-11T10:04:32.974Z,5.95
2022-09-11T10:07:10.812Z,4.57
2022-09-11T10:09:46.682Z,4.35
2022-09-11T10:12:20.184Z,8.50
2022-09-11T10:14:54.384Z,5.10
2022-09-11T10:17:24.874Z,5.30
2022-09-11T10:19:57.018Z,7.55
2022-09-11T10:22:28.731Z,5.07
2022-09-11T10:25:02.608Z,4.78
2022-09-11T10:27:36.396Z,5.93
2022-09-11T10:30:05.234Z,5.82
2022-09-11T10:32:37.313Z,9.85
2022-09-11T10:35:10.354Z,5.93
2022-09-11T10:37:39.166Z,7.13
2022-09-11T10:40:18.315Z,6.88
2022-09-11T10:42:54.725Z,6.85
2022-09-11T10:45:24.619Z,5.35
2022-09-11T10:47:53.366Z,5.70
2022-09-11T10:50:24.709Z,6.57
2022-09-11T10:53:05.436Z,6.13
2022-09-11T10:55:37.880Z,5.95
2022-09-11T10:58:14.495Z,5.97
2022-09-11T11:00:42.750Z,2.95
2022-09-11T11:03:17.227Z,5.18
2022-09-11T11:05:53.968Z,6.32
2022-09-11T11:08:42.584Z,6.22
2022-09-11T11:11:28.788Z,3.95
2022-09-11T11:14:16.681Z,6.13
2022-09-11T11:16:56.023Z,3.28
2022-09-11T11:19:46.381Z,7.95
2022-09-11T11:22:28.548Z,6.57
2022-09-11T11:25:14.317Z,4.70
2022-09-11T11:28:19.041Z,3.40
2022-09-11T11:30:56.924Z,6.00
2022-09-11T11:33:41.941Z,5.65
2022-09-11T11:36:15.446Z,6.07
2022-09-11T11:38:49.000Z,7.20
2022-09-11T11:41:23.591Z,4.43
2022-09-11T11:43:52.947Z,5.20
2022-09-11T11:46:26.894Z,4.85
2022-09-11T11:49:00.385Z,4.88
2022-09-11T11:51:31.621Z,5.13
2022-09-11T11:54:05.323Z,3.72
2022-09-11T11:56:38.865Z,9.52
2022-09-11T11:59:16.333Z,3.58
2022-09-11T12:01:51.771Z,8.18
2022-09-11T12:04:42.642Z,3.97
2022-09-11T12:07:17.890Z,4.43
2022-09-11T12:09:50.190Z,8.82
2022-09-11T12:12:19.797Z,6.78
2022-09-11T12:14:52.571Z,6.72
2022-09-11T12:17:29.294Z,3.63
2022-09-11T12:20:17.340Z,5.25
2022-09-11T12:22:49.205Z,8.35
2022-09-11T12:26:06.332Z,5.38
2022-09-11T12:28:35.772Z,5.90
2022-09-11T12:31:06.425Z,4.30
2022-09-11T12:33:54.543Z,4.22
2022-09-11T12:36:44.759Z,3.92
2022-09-11T12:39:26.575Z,4.65
2022-09-11T12:42:14.826Z,5.03
2022-09-11T12:44:59.667Z,4.13
2022-09-11T12:47:31.181Z,6.38
2022-09-11T12:50:16.660Z,4.68
2022-09-11T12:52:51.804Z,4.78
2022-09-11T12:55:33.320Z,7.10
2022-09-11T12:58:04.624Z,4.95
2022-09-11T13:00:40.244Z,6.20
2022-09-11T13:03:17.326Z,7.97
2022-09-11T13:05:55.269Z,3.35
2022-09-11T13:08:27.708Z,3.35
2022-09-11T13:11:34.526Z,4.05
2022-09-11T13:14:03.020Z,5.13
2022-09-11T13:16:34.802Z,4.45
2022-09-11T13:19:13.447Z,4.95
2022-09-11T13:21:44.983Z,3.50
2022-09-11T13:24:26.300Z,5.95
2022-09-11T13:26:58.247Z,3.45
2022-09-11T13:29:29.198Z,3.30
2022-09-11T13:31:58.712Z,5.10
2022-09-11T13:34:30.465Z,5.07
2022-09-11T13:37:00.235Z,4.32
2022-09-11T13:39:29.070Z,4.00
2022-09-11T13:42:03.833Z,6.57
2022-09-11T13:44:39.928Z,5.05
2022-09-11T13:47:20.208Z,4.35
2022-09-11T13:49:50.143Z,5.85
2022-09-11T13:52:22.374Z,3.83
2022-09-11T13:54:53.246Z,6.45
2022-09-11T13:57:23.154Z,2.63
2022-09-11T13:59:54.217Z,3.33
2022-09-11T14:02:49.799Z,6.43
2022-09-11T14:05:22.020Z,6.18
2022-09-11T14:07:59.990Z,2.72
2022-09-11T14:10:31.295Z,8.20
2022-09-11T14:13:10.998Z,5.85
2022-09-11T14:15:42.330Z,3.35
2022-09-11T14:18:19.027Z,5.80
2022-09-11T14:20:47.593Z,4.95
2022-09-11T14:23:21.867Z,5.95
2022-09-11T14:26:12.569Z,5.80
2022-09-11T14:28:50.943Z,4.18
2022-09-11T14:31:31.443Z,4.85
2022-09-11T14:34:17.998Z,3.60
2022-09-11T14:36:50.168Z,3.25
2022-09-11T14:39:26.745Z,4.80
2022-09-11T14:41:55.758Z,5.47
2022-09-11T14:44:26.339Z,3.83
2022-09-11T14:46:55.149Z,5.47
2022-09-11T14:49:23.582Z,6.93
2022-09-11T14:51:58.205Z,5.50
2022-09-11T14:54:31.304Z,7.38
2022-09-11T14:57:00.088Z,3.53
2022-09-11T14:59:29.489Z,5.50
2022-09-11T15:01:58.518Z,3.90
2022-09-11T15:04:27.410Z,5.78
2022-09-11T15:06:56.769Z,4.35
2022-09-11T15:09:27.144Z,3.00
2022-09-11T15:11:55.455Z,5.63
2022-09-11T15:14:52.002Z,6.97
2022-09-11T15:17:15.842Z,4.63
2022-09-11T15:19:45.993Z,7.63
2022-09-11T15:22:14.882Z,4.70
2022-09-11T15:24:44.839Z,4.40
2022-09-11T15:27:13.054Z,3.88
2022-09-11T15:29:43.577Z,4.57
2022-09-11T15:32:12.011Z,4.78
2022-09-11T15:34:40.937Z,2.10
2022-09-11T15:37:09.476Z,3.20
2022-09-11T15:39:37.731Z,4.35
2022-09-11T15:42:08.365Z,3.83
2022-09-11T15:44:37.315Z,3.30
2022-09-11T15:47:07.008Z,6.50
2022-09-11T15:49:40.664Z,3.05
2022-09-11T15:52:09.543Z,4.20
2022-09-11T15:54:37.910Z,1.92
2022-09-11T15:57:07.689Z,5.00
2022-09-11T15:59:35.883Z,7.72
2022-09-11T16:02:04.727Z,5.78
2022-09-11T16:04:33.589Z,5.03
2022-09-11T16:07:02.081Z,5.50
2022-09-11T16:09:31.871Z,3.53
2022-09-11T16:12:01.667Z,4.20
2022-09-11T16:14:34.624Z,4.43
2022-09-11T16:17:05.437Z,4.40
2022-09-11T16:19:34.440Z,5.47
2022-09-11T16:22:04.872Z,3.70
2022-09-11T16:24:37.824Z,4.03
2022-09-11T16:27:07.784Z,3.65
2022-09-11T16:30:09.445Z,4.85
2022-09-11T16:32:29.532Z,4.43
2022-09-11T16:34:59.678Z,6.80
2022-09-11T16:37:31.051Z,6.38
2022-09-11T16:39:59.646Z,5.32
2022-09-11T16:42:28.511Z,4.88
2022-09-11T16:44:58.923Z,4.15
2022-09-11T16:47:30.371Z,5.13
2022-09-11T16:50:07.398Z,4.40
2022-09-11T16:52:36.800Z,8.23
2022-09-11T16:55:06.321Z,3.60
2022-09-11T16:57:35.161Z,6.85
2022-09-11T17:00:06.799Z,5.18
2022-09-11T17:02:35.090Z,6.78
2022-09-11T17:05:03.663Z,7.53
2022-09-11T17:07:37.346Z,3.60
2022-09-11T17:10:06.049Z,5.88
2022-09-11T17:12:34.502Z,4.28
2022-09-11T17:15:04.791Z,8.45
2022-09-11T17:17:33.489Z,5.82
2022-09-11T17:20:01.923Z,5.88
2022-09-11T17:22:30.449Z,6.32
2022-09-11T17:24:59.001Z,6.45
2022-09-11T17:27:27.719Z,8.27
2022-09-11T17:29:57.642Z,8.23
2022-09-11T17:32:28.925Z,8.15
2022-09-11T17:34:58.730Z,8.68
2022-09-11T17:37:27.259Z,6.13
2022-09-11T17:39:55.915Z,6.15
2022-09-11T17:42:24.826Z,6.25
2022-09-11T17:44:56.616Z,6.07
2022-09-11T17:47:26.649Z,8.00
2022-09-11T17:49:54.890Z,5.47
2022-09-11T17:52:23.202Z,5.68
2022-09-11T17:54:51.444Z,6.35
2022-09-11T17:57:25.061Z,6.57
2022-09-11T17:59:53.573Z,6.03
2022-09-11T18:02:21.976Z,9.77
2022-09-11T18:04:52.250Z,8.18
2022-09-11T18:07:20.642Z,7.97
2022-09-11T18:09:54.086Z,8.15
2022-09-11T18:12:26.027Z,11.15
2022-09-11T18:14:57.209Z,6.28
2022-09-11T18:17:25.343Z,6.80
2022-09-11T18:19:54.914Z,6.80
2022-09-11T18:22:23.537Z,10.20
2022-09-11T18:24:52.078Z,9.25
2022-09-11T18:27:20.692Z,7.82
2022-09-11T18:29:50.204Z,10.18
2022-09-11T18:32:19.913Z,10.40
2022-09-11T18:34:49.654Z,7.57
2022-09-11T18:37:19.830Z,13.70
2022-09-11T18:39:48.710Z,10.65
2022-09-11T18:42:18.029Z,8.50
2022-09-11T18:44:46.721Z,10.27
2022-09-11T18:47:14.951Z,13.63
2022-09-11T18:49:43.947Z,11.05
2022-09-11T18:52:14.615Z,17.60
2022-09-11T18:54:44.593Z,11.55
2022-09-11T18:57:13.098Z,12.93
2022-09-11T18:59:41.494Z,13.70
2022-09-11T19:02:11.170Z,11.43
2022-09-11T19:04:39.417Z,14.43
2022-09-11T19:07:07.590Z,14.55
2022-09-11T19:09:35.749Z,11.70
2022-09-11T19:12:06.370Z,11.45
2022-09-11T19:14:35.856Z,12.20
2022-09-11T19:17:04.332Z,13.82
2022-09-11T19:19:32.849Z,16.05
2022-09-11T19:22:01.075Z,17.52
2022-09-11T19:24:30.133Z,13.93
2022-09-11T19:27:00.189Z,14.15
2022-09-11T19:29:30.222Z,11.63
2022-09-11T19:32:00.274Z,14.45
2022-09-11T19:34:29.199Z,15.38
2022-09-11T19:36:57.781Z,15.30
2022-09-11T19:39:26.874Z,14.93
2022-09-11T19:41:55.233Z,16.17
2022-09-11T19:44:25.225Z,14.90
2022-09-11T19:46:56.274Z,17.20
2022-09-11T19:49:24.890Z,18.58
2022-09-11T19:51:54.482Z,17.20
2022-09-11T19:54:23.250Z,20.00
2022-09-11T19:56:51.780Z,17.15
2022-09-11T19:59:20.469Z,16.73
2022-09-11T20:01:48.934Z,19.10
2022-09-11T20:04:19.226Z,16.55
2022-09-11T20:09:32.050Z,19.05
2022-09-11T20:12:01.477Z,18.77
2022-09-11T20:14:30.758Z,19.83
2022-09-11T20:17:00.898Z,22.35
2022-09-11T20:19:30.722Z,22.45
2022-09-11T20:22:00.648Z,26.38
2022-09-11T20:24:29.184Z,25.88
2022-09-11T20:26:57.458Z,23.25
2022-09-11T20:29:25.774Z,24.25
2022-09-11T20:31:55.704Z,25.95
2022-09-11T20:34:27.872Z,24.05
2022-09-11T20:37:00.823Z,27.80
2022-09-11T20:39:29.350Z,24.63
2022-09-11T20:41:57.656Z,26.20
2022-09-11T20:44:27.053Z,28.17
2022-09-11T20:46:55.559Z,28.42
2022-09-11T20:49:24.063Z,26.77
2022-09-11T20:51:52.389Z,29.75
2022-09-11T20:54:22.493Z,26.65
2022-09-11T20:56:50.723Z,28.55
2022-09-11T20:59:19.045Z,29.30
2022-09-11T21:01:49.149Z,31.17
2022-09-11T21:04:17.632Z,29.20
2022-09-11T21:06:47.542Z,30.60
2022-09-11T21:09:15.964Z,29.35
2022-09-11T21:11:45.462Z,30.83
2022-09-11T21:14:14.799Z,31.45
2022-09-11T21:16:43.303Z,30.67
2022-09-11T21:19:11.840Z,30.98
2022-09-11T21:21:40.413Z,30.33
2022-09-11T21:24:15.534Z,33.83
2022-09-11T21:26:45.329Z,32.25
2022-09-11T21:29:14.751Z,30.90
2022-09-11T21:31:43.098Z,32.10
2022-09-11T21:34:12.055Z,32.72
2022-09-11T21:36:40.548Z,31.92
2022-09-11T21:39:08.712Z,36.55
2022-09-11T21:41:36.956Z,33.38
2022-09-11T21:44:06.508Z,31.85
2022-09-11T21:46:34.930Z,32.95
2022-09-11T21:49:03.278Z,34.20
2022-09-11T21:51:31.817Z,33.05
2022-09-11T21:54:01.977Z,33.13
2022-09-11T21:56:32.681Z,32.40
2022-09-11T21:59:01.359Z,36.72
2022-09-11T22:01:31.789Z,31.55
2022-09-11T22:04:01.400Z,36.97
2022-09-11T22:06:30.176Z,32.47
2022-09-11T22:08:58.854Z,36.35
2022-09-11T22:11:27.277Z,37.15
2022-09-11T22:13:56.344Z,37.13
2022-09-11T22:16:24.837Z,37.80
2022-09-11T22:18:56.966Z,36.42
2022-09-11T22:21:25.473Z,39.95
2022-09-11T22:23:55.477Z,33.30
2022-09-11T22:26:24.454Z,34.60
2022-09-11T22:28:53.026Z,34.20
2022-09-11T22:31:24.217Z,34.78
2022-09-11T22:33:55.111Z,32.90
2022-09-11T22:36:25.679Z,36.90
2022-09-11T22:38:53.948Z,33.22
2022-09-11T22:41:22.379Z,35.05
2022-09-11T22:43:51.096Z,32.35
2022-09-11T22:46:20.990Z,33.38
2022-09-11T22:48:49.526Z,36.47
2022-09-11T22:51:19.110Z,34.67
2022-09-11T22:53:47.713Z,38.42
2022-09-11T22:56:16.819Z,33.20
2022-09-11T22:58:45.245Z,31.92
2022-09-11T23:01:21.052Z,31.95
2022-09-11T23:03:50.764Z,33.63
2022-09-11T23:06:39.697Z,33.13
2022-09-11T23:09:09.573Z,33.20
2022-09-11T23:11:38.102Z,32.97
2022-09-11T23:14:10.488Z,31.63
2022-09-11T23:16:42.580Z,31.30
2022-09-11T23:19:14.246Z,29.70
2022-09-11T23:21:44.385Z,30.73
2022-09-11T23:24:14.536Z,31.70
2022-09-11T23:26:43.397Z,28.48
2022-09-11T23:29:11.835Z,30.48
2022-09-11T23:31:40.824Z,29.75
2022-09-11T23:34:10.548Z,30.35
2022-09-11T23:36:38.904Z,28.60
2022-09-11T23:39:08.456Z,28.38
2022-09-11T23:41:36.833Z,26.25
2022-09-11T23:44:05.544Z,31.13
2022-09-11T23:46:34.067Z,28.15
2022-09-11T23:49:02.335Z,30.30
2022-09-11T23:51:30.648Z,27.85
2022-09-11T23:53:59.036Z,31.75
2022-09-11T23:56:28.807Z,29.42
2022-09-11T23:58:57.090Z,28.08
